Time;durP1;ratioP1;P1;durP2;ratioP2;P2;SDS_P1;SDS_P2;PMS_P1;PMS_P2;Temp;Humidity;BMP_temperature;BMP_pressure;BME280_temperature;BME280_humidity;BME280_pressure;Samples;Min_cycle;Max_cycle;Signal;HPM_P1;HPM_P2
2022/05/11 00:00:13;;;;;;;62.10;55.30;;;409.80;2355.20;;;;;;5094602;28;20373;-64
2022/05/11 00:02:39;;;;;;;111.82;96.93;;;409.80;2355.20;;;;;;5094536;28;20509;-64
2022/05/11 00:05:07;;;;;;;207.63;162.15;;;409.80;2355.20;;;;;;5095226;28;20369;-64
2022/05/11 00:07:33;;;;;;;181.90;144.68;;;409.70;2355.20;;;;;;5094277;28;20426;-64
2022/05/11 00:09:59;;;;;;;176.32;139.95;;;384.90;2329.60;;;;;;5076202;28;20371;-64
2022/05/11 00:12:25;;;;;;;171.45;134.45;;;384.80;2329.60;;;;;;5094280;28;20741;-63
2022/05/11 00:14:51;;;;;;;155.30;125.67;;;384.80;2329.60;;;;;;5094280;28;20376;-64
2022/05/11 00:17:17;;;;;;;164.02;127.10;;;384.80;2329.60;;;;;;5094523;28;20415;-63
2022/05/11 00:19:42;;;;;;;137.43;112.20;;;384.80;2329.60;;;;;;5094192;28;20360;-63
2022/05/11 00:22:08;;;;;;;105.47;89.00;;;384.90;2329.60;;;;;;5094886;28;20808;-63
2022/05/11 00:24:35;;;;;;;90.53;74.97;;;384.90;2329.60;;;;;;5094122;28;20464;-63
2022/05/11 00:27:02;;;;;;;96.03;81.82;;;384.90;2329.60;;;;;;5094119;28;20383;-63
2022/05/11 00:29:30;;;;;;;81.60;69.47;;;384.90;2329.60;;;;;;5074957;28;20385;-64
2022/05/11 00:31:56;;;;;;;78.35;66.25;;;384.80;2329.60;;;;;;5093918;28;20430;-67
2022/05/11 00:34:23;;;;;;;65.18;58.08;;;384.80;2329.60;;;;;;5093822;28;20433;-68
2022/05/11 00:36:49;;;;;;;76.00;65.43;;;384.80;2329.60;;;;;;5093942;28;20748;-64
2022/05/11 00:39:14;;;;;;;49.27;44.03;;;384.90;2329.60;;;;;;5093890;28;20372;-68
2022/05/11 00:41:41;;;;;;;48.70;43.53;;;409.70;2355.20;;;;;;5093769;28;20836;-66
2022/05/11 00:44:09;;;;;;;40.33;36.30;;;409.60;2355.20;;;;;;5075570;28;20742;-68
2022/05/11 00:46:42;;;;;;;35.13;31.48;;;409.70;2355.20;;;;;;5093595;28;20392;-68
2022/05/11 00:49:35;;;;;;;32.30;28.80;;;409.60;2355.20;;;;;;5093901;28;20376;-67
2022/05/11 00:52:07;;;;;;;30.33;27.35;;;409.70;2355.20;;;;;;5093403;28;20460;-67
2022/05/11 00:54:37;;;;;;;29.80;26.95;;;409.70;2355.20;;;;;;5093373;28;20410;-65
2022/05/11 00:57:08;;;;;;;31.90;28.63;;;409.70;2355.20;;;;;;5093717;28;20399;-64
2022/05/11 00:59:38;;;;;;;28.35;25.48;;;384.90;2329.60;;;;;;5093485;28;20397;-68
2022/05/11 01:02:06;;;;;;;27.45;24.58;;;409.60;2355.20;;;;;;5093481;28;20813;-65
2022/05/11 01:04:36;;;;;;;26.73;23.77;;;409.60;2355.20;;;;;;5093474;28;20372;-67
2022/05/11 01:07:04;;;;;;;25.27;22.83;;;384.90;2329.60;;;;;;5093420;28;20364;-68
2022/05/11 01:09:30;;;;;;;25.90;23.30;;;409.60;2355.20;;;;;;5093246;28;20423;-66
2022/05/11 01:11:59;;;;;;;25.80;23.25;;;409.60;2355.20;;;;;;5093131;28;20380;-63
2022/05/11 01:14:29;;;;;;;25.48;23.02;;;384.90;2329.60;;;;;;5093578;28;20473;-64
2022/05/11 01:16:57;;;;;;;25.38;22.77;;;409.60;2355.20;;;;;;5093175;28;20361;-66
2022/05/11 01:19:28;;;;;;;24.73;22.13;;;409.60;2355.20;;;;;;5093139;28;20857;-63
2022/05/11 01:22:06;;;;;;;24.80;22.40;;;409.70;2355.20;;;;;;5093444;28;20371;-65
2022/05/11 01:24:40;;;;;;;24.08;21.83;;;409.70;2355.20;;;;;;5093135;28;20353;-69
2022/05/11 01:27:27;;;;;;;24.33;21.75;;;409.70;2355.20;;;;;;5093447;28;20884;-69
2022/05/11 01:29:55;;;;;;;25.77;23.38;;;409.70;2355.20;;;;;;5093375;28;20426;-63
2022/05/11 01:32:23;;;;;;;24.25;21.95;;;409.70;2355.20;;;;;;5092925;28;20380;-64
2022/05/11 01:34:56;;;;;;;24.23;21.93;;;384.90;2329.60;;;;;;5074789;28;20418;-63
2022/05/11 01:37:22;;;;;;;22.42;20.27;;;384.80;2329.60;;;;;;5092842;28;20384;-64
2022/05/11 01:39:49;;;;;;;22.67;20.40;;;384.90;2329.60;;;;;;5092795;28;20732;-63
2022/05/11 01:42:15;;;;;;;23.05;20.73;;;409.60;2355.20;;;;;;5093109;28;20360;-68
2022/05/11 01:44:41;;;;;;;23.40;21.27;;;409.70;2355.20;;;;;;5092656;28;20376;-68
2022/05/11 01:47:07;;;;;;;24.45;22.23;;;409.60;2355.20;;;;;;5092678;28;20380;-68
2022/05/11 01:49:33;;;;;;;21.97;19.87;;;409.60;2355.20;;;;;;5092724;28;20413;-63
2022/05/11 01:51:58;;;;;;;23.85;21.45;;;409.70;2355.20;;;;;;5092772;28;20392;-66
2022/05/11 01:54:25;;;;;;;22.50;20.37;;;409.70;2355.20;;;;;;5092538;28;20367;-68
2022/05/11 01:56:51;;;;;;;23.50;21.15;;;409.80;2355.20;;;;;;5092569;28;20876;-68
2022/05/11 01:59:17;;;;;;;24.35;20.30;;;409.80;2355.20;;;;;;5092748;28;20368;-64
2022/05/11 02:01:43;;;;;;;23.70;21.20;;;409.70;2355.20;;;;;;5093082;28;20422;-64
2022/05/11 02:09:42;;;;;;;20.95;18.75;;;409.60;2355.20;;;;;;5092521;28;20915;-64
2022/05/11 02:12:10;;;;;;;21.60;19.30;;;409.60;2355.20;;;;;;5092672;28;20384;-64
2022/05/11 02:14:36;;;;;;;20.88;18.90;;;409.70;2355.20;;;;;;5092387;28;20719;-64
2022/05/11 02:17:02;;;;;;;20.13;18.23;;;409.70;2355.20;;;;;;5092556;28;20372;-64
2022/05/11 02:19:29;;;;;;;20.88;18.88;;;409.60;2355.20;;;;;;5092409;28;20857;-64
2022/05/11 02:21:55;;;;;;;21.27;19.15;;;384.90;2329.60;;;;;;5092343;28;20373;-63
2022/05/11 02:24:21;;;;;;;20.88;18.77;;;384.80;2329.60;;;;;;5092581;28;20379;-63
2022/05/11 02:26:47;;;;;;;20.40;18.40;;;384.90;2329.60;;;;;;5092545;28;20435;-62
2022/05/11 02:29:13;;;;;;;20.33;18.23;;;409.70;2355.20;;;;;;5092225;28;20372;-63
2022/05/11 02:31:39;;;;;;;19.92;18.02;;;384.90;2329.60;;;;;;5092429;28;20367;-64
2022/05/11 02:34:06;;;;;;;20.83;18.77;;;409.60;2355.20;;;;;;5092302;28;20931;-63
2022/05/11 02:36:36;;;;;;;20.97;18.97;;;409.60;2355.20;;;;;;5092081;28;20771;-63
2022/05/11 02:39:01;;;;;;;22.13;20.03;;;409.60;2355.20;;;;;;5092743;28;20715;-64
2022/05/11 02:41:27;;;;;;;21.77;19.63;;;384.90;2329.60;;;;;;5092088;28;20867;-64
2022/05/11 02:43:53;;;;;;;18.75;16.95;;;384.90;2329.60;;;;;;5092416;28;20379;-63
2022/05/11 02:46:20;;;;;;;18.90;16.45;;;409.60;2355.20;;;;;;5092078;28;20373;-65
2022/05/11 02:48:48;;;;;;;20.73;18.65;;;409.70;2355.20;;;;;;5091938;28;20848;-64
2022/05/11 02:51:13;;;;;;;20.83;18.73;;;409.70;2355.20;;;;;;5092698;28;20411;-64
2022/05/11 02:53:39;;;;;;;22.33;20.10;;;409.80;2355.20;;;;;;5095970;28;20737;-64
2022/05/11 02:56:05;;;;;;;22.40;20.15;;;409.70;2355.20;;;;;;5096546;28;20361;-63
2022/05/11 02:58:32;;;;;;;22.55;20.27;;;409.60;2355.20;;;;;;5095947;28;20381;-68
2022/05/11 03:01:00;;;;;;;21.73;19.58;;;409.60;2355.20;;;;;;5096065;28;20370;-67
2022/05/11 03:03:33;;;;;;;21.90;19.70;;;409.60;2355.20;;;;;;5095854;28;20365;-64
2022/05/11 03:06:01;;;;;;;23.75;21.27;;;409.60;2355.20;;;;;;5095714;28;20446;-64
2022/05/11 03:08:29;;;;;;;22.50;20.13;;;384.80;2329.60;;;;;;5096194;28;20887;-67
2022/05/11 03:10:55;;;;;;;22.80;20.42;;;384.80;2329.60;;;;;;5095688;28;20500;-67
2022/05/11 03:13:21;;;;;;;22.67;20.30;;;384.90;2329.60;;;;;;5095574;28;20806;-64
2022/05/11 03:15:47;;;;;;;22.40;20.13;;;409.70;2355.20;;;;;;5095627;28;20360;-68
2022/05/11 03:18:13;;;;;;;23.38;21.08;;;409.70;2355.20;;;;;;5095581;28;20741;-67
2022/05/11 03:20:39;;;;;;;22.98;20.58;;;409.60;2355.20;;;;;;5095477;28;20825;-64
2022/05/11 03:23:05;;;;;;;23.98;21.58;;;409.70;2355.20;;;;;;5095680;28;20377;-64
2022/05/11 03:25:31;;;;;;;24.92;22.52;;;384.70;2329.60;;;;;;5095496;28;20377;-63
2022/05/11 03:27:57;;;;;;;28.17;25.17;;;384.40;2329.60;;;;;;5095651;28;20395;-64
2022/05/11 03:30:23;;;;;;;30.27;27.08;;;384.10;2329.60;;;;;;5095265;28;20403;-65
2022/05/11 03:35:35;;;;;;;35.38;28.55;;;359.30;2329.60;;;;;;5095195;28;20721;-68
2022/05/11 03:38:01;;;;;;;35.50;29.08;;;359.10;2329.60;;;;;;5095303;28;20736;-63
2022/05/11 03:40:27;;;;;;;38.60;30.48;;;359.00;2329.60;;;;;;5094949;28;20368;-64
2022/05/11 03:42:53;;;;;;;33.80;28.35;;;358.90;2329.60;;;;;;5095551;28;20483;-63
2022/05/11 03:45:22;;;;;;;35.38;28.20;;;358.90;2329.60;;;;;;5094895;28;20467;-64
2022/05/11 03:47:49;;;;;;;32.63;27.40;;;359.00;2329.60;;;;;;5094789;28;20438;-63
2022/05/11 03:50:19;;;;;;;31.95;27.35;;;359.10;2329.60;;;;;;5094782;28;20489;-68
2022/05/11 03:52:46;;;;;;;29.80;26.70;;;359.00;2329.60;;;;;;5094967;28;20810;-63
2022/05/11 03:55:12;;;;;;;32.13;26.47;;;359.00;2329.60;;;;;;5076524;28;20388;-64
2022/05/11 03:57:39;;;;;;;28.20;25.30;;;359.10;2329.60;;;;;;5094638;28;20377;-63
2022/05/11 04:00:09;;;;;;;29.27;24.25;;;359.10;2329.60;;;;;;5095856;28;20385;-68
2022/05/11 04:02:35;;;;;;;26.73;22.60;;;359.00;2329.60;;;;;;5076713;28;20419;-68
2022/05/11 04:05:01;;;;;;;26.17;22.95;;;358.90;2329.60;;;;;;5095510;28;20029;-69
2022/05/11 04:07:27;;;;;;;26.05;20.98;;;358.80;2329.60;;;;;;5095760;28;20069;-63
2022/05/11 04:09:53;;;;;;;26.70;20.67;;;358.80;2329.60;;;;;;5096230;28;20103;-64
2022/05/11 04:12:19;;;;;;;23.67;19.90;;;358.70;2329.60;;;;;;5095657;28;20039;-64
2022/05/11 04:14:44;;;;;;;24.85;20.73;;;358.70;2329.60;;;;;;5095582;28;20020;-67
2022/05/11 04:17:10;;;;;;;22.67;20.27;;;358.80;2329.60;;;;;;5095519;28;20024;-63
2022/05/11 04:19:36;;;;;;;22.90;20.40;;;358.80;2329.60;;;;;;5077671;28;20161;-68
2022/05/11 04:22:02;;;;;;;23.08;20.58;;;358.80;2329.60;;;;;;5095724;28;20016;-64
2022/05/11 04:24:28;;;;;;;22.15;19.35;;;358.60;2329.60;;;;;;5077226;28;20494;-64
2022/05/11 04:26:55;;;;;;;22.02;19.83;;;358.70;2329.60;;;;;;5095430;28;20052;-64
2022/05/11 04:29:22;;;;;;;28.45;22.02;;;358.80;2329.60;;;;;;5095235;28;20023;-69
2022/05/11 04:31:57;;;;;;;23.15;20.67;;;358.80;2329.60;;;;;;5095162;28;20032;-64
2022/05/11 04:34:24;;;;;;;23.70;20.58;;;358.80;2329.60;;;;;;5095205;28;20481;-68
2022/05/11 04:36:50;;;;;;;23.40;20.10;;;358.80;2329.60;;;;;;5094985;28;20046;-65
2022/05/11 04:39:16;;;;;;;26.00;21.77;;;358.80;2329.60;;;;;;5095077;28;20052;-64
2022/05/11 04:41:42;;;;;;;27.60;20.25;;;358.90;2329.60;;;;;;5095061;28;20051;-66
2022/05/11 04:44:08;;;;;;;23.60;21.02;;;359.00;2329.60;;;;;;5095284;28;20473;-64
2022/05/11 04:46:38;;;;;;;25.52;20.92;;;359.00;2329.60;;;;;;5095062;28;20024;-68
2022/05/11 04:49:19;;;;;;;24.80;22.17;;;359.20;2329.60;;;;;;5095436;28;20031;-68
2022/05/11 04:51:50;;;;;;;24.38;21.40;;;359.20;2329.60;;;;;;5094778;28;20388;-68
2022/05/11 04:54:17;;;;;;;26.40;22.52;;;359.20;2329.60;;;;;;5094869;28;20026;-69
2022/05/11 04:56:43;;;;;;;26.75;22.17;;;359.30;2329.60;;;;;;5094727;28;20072;-68
2022/05/11 04:59:12;;;;;;;25.10;22.13;;;359.30;2329.60;;;;;;5094859;28;20031;-64
2022/05/11 05:01:38;;;;;;;25.05;22.35;;;359.30;2329.60;;;;;;5094713;28;20028;-64
2022/05/11 05:04:04;;;;;;;27.52;22.35;;;359.30;2329.60;;;;;;5095215;28;20107;-64
2022/05/11 05:06:33;;;;;;;24.90;22.30;;;384.10;2329.60;;;;;;5094879;28;20061;-64
2022/05/11 05:09:04;;;;;;;25.48;21.23;;;384.20;2329.60;;;;;;5094487;28;20027;-64
2022/05/11 05:11:30;;;;;;;24.20;21.73;;;384.20;2329.60;;;;;;5094574;28;20537;-64
2022/05/11 05:13:56;;;;;;;24.55;21.48;;;384.30;2329.60;;;;;;5093994;28;20024;-67
2022/05/11 05:16:22;;;;;;;23.80;21.35;;;384.40;2329.60;;;;;;5094650;28;20388;-64
2022/05/11 05:18:48;;;;;;;27.52;23.00;;;384.40;2329.60;;;;;;5094383;28;20039;-65
2022/05/11 05:21:14;;;;;;;24.50;20.98;;;384.50;2329.60;;;;;;5094491;28;20031;-68
2022/05/11 05:23:40;;;;;;;25.58;23.02;;;384.40;2329.60;;;;;;5094486;28;20375;-64
2022/05/11 05:26:06;;;;;;;24.70;22.10;;;384.60;2329.60;;;;;;5094740;28;20073;-64
2022/05/11 05:31:21;;;;;;;27.88;22.13;;;384.70;2329.60;;;;;;5094385;28;20055;-64
2022/05/11 05:33:47;;;;;;;25.25;22.25;;;384.80;2329.60;;;;;;5094363;28;20036;-65
2022/05/11 05:36:13;;;;;;;27.25;22.42;;;409.60;2355.20;;;;;;5094014;28;20059;-65
2022/05/11 05:38:41;;;;;;;31.63;24.88;;;409.70;2355.20;;;;;;5094022;28;20461;-63
2022/05/11 05:41:09;;;;;;;27.65;24.67;;;409.80;2355.20;;;;;;5076612;28;20088;-63
2022/05/11 05:43:37;;;;;;;27.33;23.02;;;410.00;2355.20;;;;;;5093926;28;20055;-66
2022/05/11 05:46:03;;;;;;;26.75;23.77;;;410.10;2355.20;;;;;;5093930;28;20016;-63
2022/05/11 05:48:29;;;;;;;25.58;22.55;;;410.30;2355.20;;;;;;5093821;28;20103;-64
2022/05/11 05:51:06;;;;;;;24.92;22.27;;;410.40;2355.20;;;;;;5093597;28;20104;-63
2022/05/11 05:53:32;;;;;;;26.67;22.65;;;410.40;2355.20;;;;;;5092243;28;20061;-63
2022/05/11 05:55:58;;;;;;;28.38;25.50;;;435.20;2355.20;;;;;;5091759;28;20024;-63
2022/05/11 05:58:24;;;;;;;34.40;30.52;;;435.30;2355.20;;;;;;5074362;28;20085;-63
2022/05/11 06:00:50;;;;;;;35.38;29.45;;;435.40;2355.20;;;;;;5092858;28;20020;-63
2022/05/11 06:03:25;;;;;;;32.90;29.50;;;435.50;2355.20;;;;;;5093039;28;20028;-62
2022/05/11 06:05:51;;;;;;;33.90;29.42;;;435.50;2355.20;;;;;;5093197;28;20028;-63
2022/05/11 06:08:17;;;;;;;32.08;28.73;;;435.70;2355.20;;;;;;5093661;28;20027;-62
2022/05/11 06:10:47;;;;;;;39.33;28.42;;;435.70;2355.20;;;;;;5093780;28;20027;-62
2022/05/11 06:13:14;;;;;;;24.50;22.05;;;435.90;2355.20;;;;;;5093768;28;20036;-64
2022/05/11 06:15:41;;;;;;;22.40;19.83;;;436.00;2355.20;;;;;;5093564;28;20431;-62
2022/05/11 06:18:08;;;;;;;21.70;18.58;;;436.10;2355.20;;;;;;5093508;28;20020;-63
2022/05/11 06:20:34;;;;;;;20.55;18.40;;;460.80;2380.80;;;;;;5093772;28;20024;-62
2022/05/11 06:23:03;;;;;;;22.48;17.45;;;460.90;2380.80;;;;;;5093475;28;20020;-63
2022/05/11 06:25:33;;;;;;;20.70;18.35;;;461.00;2380.80;;;;;;5093445;28;20604;-62
2022/05/11 06:27:59;;;;;;;20.88;18.63;;;461.10;2380.80;;;;;;5097703;28;20027;-62
2022/05/11 06:30:27;;;;;;;20.65;18.48;;;461.20;2380.80;;;;;;5097592;28;20024;-62
2022/05/11 06:32:53;;;;;;;23.13;18.95;;;461.20;2380.80;;;;;;5097819;28;20036;-62
2022/05/11 06:35:19;;;;;;;21.55;18.13;;;461.40;2380.80;;;;;;5097375;28;20065;-63
2022/05/11 06:37:45;;;;;;;21.52;18.10;;;461.50;2380.80;;;;;;5079312;28;20406;-68
2022/05/11 06:40:13;;;;;;;20.23;18.13;;;461.60;2380.80;;;;;;5097457;28;20031;-67
2022/05/11 06:42:40;;;;;;;20.45;18.35;;;461.60;2380.80;;;;;;5097623;28;20096;-66
2022/05/11 06:45:07;;;;;;;19.17;17.17;;;486.40;2380.80;;;;;;5097400;28;20024;-68
2022/05/11 06:47:33;;;;;;;19.67;17.65;;;486.60;2380.80;;;;;;5097240;28;20044;-67
2022/05/11 06:50:00;;;;;;;19.88;17.88;;;486.60;2380.80;;;;;;5097559;28;20056;-69
2022/05/11 06:52:26;;;;;;;19.58;17.70;;;486.80;2380.80;;;;;;5096007;28;20399;-69
2022/05/11 07:00:23;;;;;;;;;;;512.00;2380.80;;;;;;5097847;28;20510;-68
2022/05/11 07:02:49;;;;;;;;;;;512.20;2380.80;;;;;;5097692;28;19907;-68
2022/05/11 07:05:17;;;;;;;22.60;18.05;;;512.30;2380.80;;;;;;5096912;28;19950;-68
2022/05/11 07:07:42;;;;;;;18.00;15.07;;;512.40;2380.80;;;;;;5096896;28;20489;-69
2022/05/11 07:10:09;;;;;;;15.20;13.45;;;512.60;2380.80;;;;;;5097048;28;20059;-68
2022/05/11 07:12:38;;;;;;;17.02;15.23;;;512.90;2380.80;;;;;;5096779;28;20032;-67
2022/05/11 07:15:08;;;;;;;16.95;14.45;;;537.60;2406.40;;;;;;5095926;28;20092;-69
2022/05/11 07:17:40;;;;;;;16.15;14.50;;;537.90;2406.40;;;;;;5096620;28;20032;-67
2022/05/11 07:20:10;;;;;;;19.08;16.00;;;538.20;2406.40;;;;;;5096433;28;20521;-66
2022/05/11 07:22:38;;;;;;;19.40;16.88;;;563.20;2432.00;;;;;;5096923;28;20119;-69
2022/05/11 07:25:06;;;;;;;15.85;14.18;;;563.50;2432.00;;;;;;5096351;28;20012;-67
2022/05/11 07:27:31;;;;;;;17.98;16.17;;;563.90;2432.00;;;;;;5096520;28;20043;-66
2022/05/11 07:29:57;;;;;;;18.35;16.55;;;564.00;2432.00;;;;;;5078246;28;20511;-65
2022/05/11 07:32:25;;;;;;;18.63;15.25;;;588.90;2432.00;;;;;;5097117;28;20056;-69
2022/05/11 07:34:51;;;;;;;16.88;12.85;;;589.20;2432.00;;;;;;5096724;28;20020;-67
2022/05/11 07:37:17;;;;;;;14.70;12.88;;;589.40;2432.00;;;;;;5095721;28;20047;-66
2022/05/11 07:39:43;;;;;;;22.13;19.30;;;589.60;2432.00;;;;;;5096866;28;20051;-66
2022/05/11 07:42:09;;;;;;;17.25;14.98;;;614.40;2432.00;;;;;;5096215;28;20050;-68
2022/05/11 07:44:35;;;;;;;13.88;10.82;;;614.60;2432.00;;;;;;5096136;28;20035;-66
2022/05/11 07:47:02;;;;;;;14.98;13.38;;;614.60;2432.00;;;;;;5096284;28;20016;-69
2022/05/11 07:49:27;;;;;;;17.45;15.60;;;614.90;2432.00;;;;;;5096053;28;20020;-68
2022/05/11 07:51:53;;;;;;;15.20;11.43;;;615.10;2432.00;;;;;;5096002;28;20024;-67
2022/05/11 07:54:20;;;;;;;9.73;8.82;;;615.20;2304.00;;;;;;5095985;28;20107;-66
2022/05/11 08:02:16;;;;;;;11.93;9.38;;;;;;;;;;5096511;28;20084;-68
2022/05/11 08:04:42;;;;;;;10.50;9.43;;;640.20;2099.20;;;;;;5094969;28;20027;-68
2022/05/11 08:07:08;;;;;;;12.65;9.65;;;;;;;;;;5095698;28;20028;-68
2022/05/11 08:09:35;;;;;;;12.90;8.75;;;;;;;;;;5095282;28;20099;-66
2022/05/11 08:12:01;;;;;;;10.00;8.90;;;;;;;;;;5095193;28;20174;-66
2022/05/11 08:14:27;;;;;;;8.57;7.68;;;640.70;1971.20;;;;;;5095171;28;20024;-67
2022/05/11 08:16:53;;;;;;;9.70;8.70;;;640.90;1971.20;;;;;;5095017;28;20019;-67
2022/05/11 08:19:20;;;;;;;13.20;9.45;;;;;;;;;;5095116;28;20055;-69
2022/05/11 08:21:47;;;;;;;11.80;10.65;;;;;;;;;;5095079;28;20081;-70
2022/05/11 08:24:13;;;;;;;12.50;10.63;;;;;;;;;;5094947;28;20396;-67
2022/05/11 08:26:41;;;;;;;13.68;10.88;;;;;;;;;;5094953;28;20026;-66
2022/05/11 08:29:07;;;;;;;14.65;12.50;;;;;;;;;;5094666;28;20152;-69
2022/05/11 08:34:18;;;;;;;14.60;11.05;;;;;;;;;;5093181;28;20191;-68
2022/05/11 08:36:48;;;;;;;12.25;9.68;;;;;;;;;;5094740;28;20044;-66
2022/05/11 08:39:14;;;;;;;10.52;9.43;;;666.40;1792.00;;;;;;5095331;28;20024;-68
2022/05/11 08:41:48;;;;;;;10.25;9.27;;;666.30;1868.80;;;;;;5095137;28;20074;-68
2022/05/11 08:44:20;;;;;;;10.95;9.85;;;691.40;1843.20;;;;;;5094764;28;20531;-70
2022/05/11 08:47:11;;;;;;;10.10;9.07;;;691.80;1843.20;;;;;;5094494;28;20016;-70
2022/05/11 08:50:09;;;;;;;12.10;8.23;;;691.70;1740.80;;;;;;5092219;28;20016;-68
2022/05/11 08:52:51;;;;;;;10.30;8.52;;;691.40;1689.60;;;;;;5092415;28;20077;-70
2022/05/11 08:55:51;;;;;;;9.88;8.30;;;691.50;1689.60;;;;;;5089996;28;20012;-69
2022/05/11 08:58:25;;;;;;;13.02;8.10;;;691.40;1664.00;;;;;;5092719;28;20013;-70
2022/05/11 09:00:54;;;;;;;8.63;7.72;;;691.80;1689.60;;;;;;5091764;28;20073;-69
2022/05/11 09:03:44;;;;;;;10.75;7.82;;;691.60;1612.80;;;;;;5094255;28;20028;-67
2022/05/11 09:06:29;;;;;;;10.25;8.20;;;691.40;1638.40;;;;;;5094246;28;20027;-70
2022/05/11 09:09:00;;;;;;;18.27;8.25;;;691.40;1638.40;;;;;;5092178;28;20024;-69
2022/05/11 09:11:33;;;;;;;13.65;6.82;;;692.00;1689.60;;;;;;5094822;28;20099;-66
2022/05/11 09:14:00;;;;;;;9.82;6.03;;;;;;;;;;5093929;28;20063;-68
2022/05/11 09:16:47;;;;;;;7.38;6.10;;;;;;;;;;5093955;28;20073;-69
2022/05/11 09:19:19;;;;;;;6.30;5.30;;;;;;;;;;5093664;28;20453;-66
2022/05/11 09:21:54;;;;;;;6.22;5.50;;;;;;;;;;5092644;28;20024;-68
2022/05/11 09:24:23;;;;;;;8.25;7.35;;;;;;;;;;5093794;28;20024;-68
2022/05/11 09:27:01;;;;;;;9.70;5.63;;;;;;;;;;5094272;28;20050;-68
2022/05/11 09:29:38;;;;;;;6.65;5.95;;;;;;;;;;5093931;28;20043;-68
2022/05/11 09:32:23;;;;;;;6.90;6.25;;;;;;;;;;5093759;28;20095;-70
2022/05/11 09:34:49;;;;;;;7.32;5.60;;;691.40;1510.40;;;;;;5094048;28;20028;-67
2022/05/11 09:37:24;;;;;;;6.78;4.13;;;;;;;;;;5093793;28;20404;-68
2022/05/11 09:39:54;;;;;;;5.60;4.03;;;;;;;;;;5094287;28;20062;-66
2022/05/11 09:42:26;;;;;;;6.63;4.53;;;;;;;;;;5094408;28;20492;-67
2022/05/11 09:44:53;;;;;;;6.22;4.32;;;;;;;;;;5094275;28;20111;-67
2022/05/11 09:47:30;;;;;;;8.98;5.15;;;;;;;;;;5093741;28;20027;-67
2022/05/11 09:50:14;;;;;;;5.80;4.50;;;;;;;;;;5093803;28;20045;-67
2022/05/11 09:52:40;;;;;;;8.77;5.65;;;;;;;;;;5093846;28;20059;-66
2022/05/11 09:55:29;;;;;;;7.85;4.18;;;640.60;1612.80;;;;;;5093757;28;20042;-67
2022/05/11 09:57:59;;;;;;;6.32;3.25;;;640.90;1484.80;;;;;;5093822;28;20020;-66
2022/05/11 10:00:29;;;;;;;3.78;2.85;;;;;;;;;;5093819;28;20012;-70
2022/05/11 10:02:58;;;;;;;5.53;3.03;;;;;;;;;;5093837;28;20024;-70
2022/05/11 10:05:28;;;;;;;14.75;11.63;;;665.70;1433.60;;;;;;5093660;28;20024;-70
2022/05/11 10:07:57;;;;;;;14.05;7.15;;;640.70;1484.80;;;;;;5093562;28;20353;-66
2022/05/11 10:10:42;;;;;;;4.28;2.90;;;665.60;1484.80;;;;;;5093605;28;20468;-70
2022/05/11 10:13:20;;;;;;;13.73;4.20;;;665.80;1459.20;;;;;;5093780;28;20119;-67
2022/05/11 10:21:56;;;;;;;6.53;3.38;;;;;;;;;;5093691;28;20035;-67
2022/05/11 10:24:41;;;;;;;4.90;3.28;;;;;;;;;;5093411;28;20027;-65
2022/05/11 10:27:10;;;;;;;4.45;3.17;;;;;;;;;;5093279;28;20102;-66
2022/05/11 10:29:39;;;;;;;3.53;2.85;;;;;;;;;;5093354;28;20062;-67
2022/05/11 10:32:29;;;;;;;11.70;3.20;;;;;;;;;;5093138;28;20417;-71
2022/05/11 10:35:01;;;;;;;5.60;2.50;;;;;;;;;;5055635;28;20036;-70
2022/05/11 10:37:36;;;;;;;6.78;2.90;;;;;;;;;;5093017;28;20051;-68
2022/05/11 10:40:09;;;;;;;8.38;3.00;;;;;;;;;;5093673;28;20027;-68
2022/05/11 10:42:36;;;;;;;6.60;2.90;;;;;;;;;;5093571;28;20033;-67
2022/05/11 10:45:12;;;;;;;9.90;6.05;;;;;;;;;;5093288;28;20085;-68
2022/05/11 10:47:56;;;;;;;4.25;2.78;;;;;;;;;;5093264;28;20046;-66
2022/05/11 10:50:27;;;;;;;3.92;3.00;;;;;;;;;;5093223;28;20028;-65
2022/05/11 10:53:00;;;;;;;3.58;2.83;;;;;;;;;;5093479;28;20063;-66
2022/05/11 10:55:29;;;;;;;4.60;2.75;;;;;;;;;;5093323;28;20103;-68
2022/05/11 10:57:58;;;;;;;5.68;2.92;;;;;;;;;;5093432;28;20025;-65
2022/05/11 11:00:26;;;;;;;4.55;2.72;;;;;;;;;;5093165;28;20132;-66
2022/05/11 11:02:52;;;;;;;28.25;14.13;;;;;;;;;;5092593;28;20032;-66
2022/05/11 11:05:18;;;;;;;4.85;3.15;;;;;;;;;;5092444;28;20033;-67
2022/05/11 11:07:59;;;;;;;6.65;2.95;;;;;;;;;;5093634;28;20157;-66
2022/05/11 11:10:33;;;;;;;4.78;2.60;;;;;;;;;;5092866;28;20020;-66
2022/05/11 11:13:03;;;;;;;3.47;2.65;;;;;;;;;;5094189;28;20073;-72
2022/05/11 11:15:31;;;;;;;5.85;2.95;;;;;;;;;;5096362;28;20054;-67
2022/05/11 11:17:59;;;;;;;3.97;2.67;;;;;;;;;;5096208;28;20022;-71
2022/05/11 11:20:26;;;;;;;3.80;2.30;;;;;;;;;;5096254;28;20493;-67
2022/05/11 11:23:12;;;;;;;3.28;2.47;;;;;;;;;;5096057;28;20465;-72
2022/05/11 11:25:46;;;;;;;5.47;2.75;;;;;;;;;;5093445;28;20063;-71
2022/05/11 11:28:15;;;;;;;5.30;2.78;;;;;;;;;;5096041;28;20016;-69
2022/05/11 11:30:42;;;;;;;2.85;2.28;;;;;;;;;;5093520;28;20051;-69
2022/05/11 11:33:19;;;;;;;3.30;2.38;;;;;;;;;;5096100;28;20031;-72
2022/05/11 11:35:51;;;;;;;5.40;2.92;;;;;;;;;;5075905;28;20044;-66
2022/05/11 11:38:38;;;;;;;5.68;2.40;;;;;;;;;;5076041;28;20486;-70
2022/05/11 11:41:19;;;;;;;6.20;2.05;;;;;;;;;;5062493;28;20474;-72
2022/05/11 11:43:45;;;;;;;9.23;2.78;;;;;;;;;;5075905;28;20028;-67
2022/05/11 11:46:34;;;;;;;3.35;2.00;;;691.90;1152.00;;;;;;5075867;28;20366;-69
2022/05/11 11:49:03;;;;;;;8.45;3.33;;;;;;;;;;5076082;28;20066;-66
2022/05/11 11:51:34;;;;;;;4.88;2.17;;;;;;;;;;5075694;28;20024;-68
2022/05/11 11:54:01;;;;;;;6.38;2.60;;;;;;;;;;5075698;28;20032;-67
2022/05/11 11:56:30;;;;;;;4.10;2.17;;;;;;;;;;5075660;28;20054;-68
2022/05/11 11:59:10;;;;;;;3.65;2.25;;;;;;;;;;5057655;28;20528;-70
2022/05/11 12:01:39;;;;;;;6.35;2.83;;;;;;;;;;5075943;28;20024;-65
2022/05/11 12:04:10;;;;;;;12.05;3.45;;;;;;;;;;5075636;28;20025;-65
2022/05/11 12:15:01;;;;;;;5.55;1.98;;;742.90;1100.80;;;;;;5075685;28;20115;-65
2022/05/11 12:17:39;;;;;;;17.80;9.88;;;742.90;1024.00;;;;;;5075324;28;20508;-66
2022/05/11 12:20:10;;;;;;;50.15;38.28;;;743.00;1049.60;;;;;;5075961;28;20137;-69
2022/05/11 12:22:48;;;;;;;37.55;31.58;;;743.00;1049.60;;;;;;5075285;28;20495;-68
2022/05/11 12:25:36;;;;;;;6.35;3.08;;;743.00;1024.00;;;;;;5074439;28;20477;-68
2022/05/11 12:28:22;;;;;;;43.40;38.75;;;743.10;998.40;;;;;;5075471;28;20047;-70
2022/05/11 12:30:48;;;;;;;11.52;9.45;;;743.10;1075.20;;;;;;5075760;28;20370;-70
2022/05/11 12:33:24;;;;;;;39.17;34.85;;;742.90;972.80;;;;;;5074907;28;20044;-70
2022/05/11 12:35:50;;;;;;;92.78;80.20;;;742.80;972.80;;;;;;5074918;28;20377;-68
2022/05/11 12:38:37;;;;;;;14.20;10.73;;;742.70;998.40;;;;;;5075185;28;20111;-68
2022/05/11 12:41:14;;;;;;;16.88;13.15;;;743.20;998.40;;;;;;5075015;28;20469;-67
2022/05/11 12:43:49;;;;;;;14.32;12.82;;;743.10;998.40;;;;;;5074843;28;20103;-68
2022/05/11 12:46:17;;;;;;;10.68;7.90;;;743.30;947.20;;;;;;5074784;28;20055;-69
2022/05/11 12:48:56;;;;;;;14.38;3.88;;;743.30;998.40;;;;;;5074647;28;20021;-67
2022/05/11 12:51:42;;;;;;;70.53;50.60;;;768.10;972.80;;;;;;5074693;28;20021;-67
2022/05/11 12:54:19;;;;;;;119.85;79.10;;;768.50;1024.00;;;;;;5074616;28;20068;-67
2022/05/11 12:57:02;;;;;;;54.03;21.70;;;768.10;947.20;;;;;;5074872;28;20028;-65
2022/05/11 12:59:29;;;;;;;14.98;7.57;;;743.30;972.80;;;;;;5074747;28;20020;-67
2022/05/11 13:02:14;;;;;;;9.35;2.70;;;743.30;998.40;;;;;;5074715;28;20074;-67
2022/05/11 13:04:52;;;;;;;6.22;2.95;;;743.10;1305.60;;;;;;5093429;28;20095;-70
2022/05/11 13:07:23;;;;;;;4.68;2.67;;;768.10;972.80;;;;;;5093989;28;20040;-69
2022/05/11 13:09:53;;;;;;;5.43;2.45;;;768.20;972.80;;;;;;5093872;28;20020;-70
2022/05/11 13:12:20;;;;;;;5.65;2.90;;;768.50;998.40;;;;;;5093850;28;20027;-70
2022/05/11 13:14:55;;;;;;;5.28;2.55;;;768.20;947.20;;;;;;5094178;28;20031;-70
2022/05/11 13:17:27;;;;;;;6.30;2.28;;;768.40;947.20;;;;;;5091476;28;20026;-70
2022/05/11 13:20:23;;;;;;;5.97;2.60;;;768.50;972.80;;;;;;5094354;28;20031;-69
2022/05/11 13:22:50;;;;;;;5.40;2.47;;;768.70;947.20;;;;;;5094256;28;20069;-70
2022/05/11 13:25:55;;;;;;;4.32;2.33;;;793.60;1024.00;;;;;;5094213;28;20035;-68